createdAt,value
2023-11-24T00:02:56.825Z,10.36
2023-11-24T00:07:58.424Z,10.38
2023-11-24T00:13:03.080Z,10.43
2023-11-24T00:18:04.538Z,10.48
2023-11-24T00:23:05.929Z,10.55
2023-11-24T00:28:07.377Z,10.55
2023-11-24T00:33:08.896Z,10.60
2023-11-24T00:38:10.303Z,10.66
2023-11-24T00:43:11.799Z,10.72
2023-11-24T00:48:13.280Z,10.72
2023-11-24T00:53:14.729Z,10.76
2023-11-24T00:58:16.164Z,10.80
2023-11-24T01:03:17.540Z,10.85
2023-11-24T01:08:18.917Z,10.91
2023-11-24T01:13:20.271Z,10.90
2023-11-24T01:18:22.423Z,10.86
2023-11-24T01:23:24.231Z,10.86
2023-11-24T01:28:26.638Z,10.92
2023-11-24T01:33:28.144Z,10.86
2023-11-24T01:38:29.596Z,10.90
2023-11-24T01:43:31.000Z,10.95
2023-11-24T01:48:32.657Z,10.47
2023-11-24T01:53:34.913Z,10.02
2023-11-24T01:58:36.328Z,9.70
2023-11-24T02:03:37.805Z,9.48
2023-11-24T02:08:39.908Z,9.18
2023-11-24T02:13:41.290Z,9.03
2023-11-24T02:18:42.981Z,8.93
2023-11-24T02:23:44.566Z,8.84
2023-11-24T02:28:46.049Z,8.80
2023-11-24T02:33:51.074Z,8.85
2023-11-24T02:38:53.054Z,8.95
2023-11-24T02:43:54.453Z,8.97
2023-11-24T02:48:55.950Z,8.99
2023-11-24T02:53:57.588Z,9.03
2023-11-24T02:58:59.018Z,9.16
2023-11-24T03:04:00.530Z,9.16
2023-11-24T03:09:07.183Z,9.16
2023-11-24T03:14:08.592Z,9.16
2023-11-24T03:19:10.464Z,9.12
2023-11-24T03:24:11.885Z,9.01
2023-11-24T03:29:13.297Z,8.98
2023-11-24T03:34:14.803Z,9.02
2023-11-24T03:39:16.491Z,9.07
2023-11-24T03:44:17.919Z,8.92
2023-11-24T03:49:19.412Z,8.98
2023-11-24T03:54:22.986Z,9.04
2023-11-24T03:59:24.409Z,9.03
2023-11-24T04:04:25.929Z,9.02
2023-11-24T04:09:27.394Z,8.98
2023-11-24T04:14:28.784Z,8.88
2023-11-24T04:19:30.160Z,8.76
2023-11-24T04:24:31.562Z,8.70
2023-11-24T04:29:32.926Z,8.59
2023-11-24T04:34:34.424Z,8.54
2023-11-24T04:39:36.168Z,8.56
2023-11-24T04:44:37.764Z,8.61
2023-11-24T04:49:39.233Z,8.63
2023-11-24T04:54:40.813Z,8.60
2023-11-24T04:59:42.219Z,8.58
2023-11-24T05:04:43.672Z,8.48
2023-11-24T05:09:46.568Z,8.50
2023-11-24T05:14:48.014Z,8.61
2023-11-24T05:19:49.405Z,8.68
2023-11-24T05:24:50.869Z,8.77
2023-11-24T05:29:52.308Z,8.69
2023-11-24T05:34:54.819Z,8.72
2023-11-24T05:39:56.352Z,8.73
2023-11-24T05:44:57.850Z,8.75
2023-11-24T05:49:59.296Z,8.80
2023-11-24T05:55:05.053Z,8.84
2023-11-24T06:00:09.713Z,8.88
2023-11-24T06:05:11.900Z,8.96
2023-11-24T06:10:13.499Z,8.94
2023-11-24T06:15:15.154Z,8.94
2023-11-24T06:20:19.318Z,8.96
2023-11-24T06:25:20.763Z,8.98
2023-11-24T06:30:22.400Z,8.98
2023-11-24T06:35:23.936Z,8.90
2023-11-24T06:40:25.635Z,8.92
2023-11-24T06:45:27.028Z,8.80
2023-11-24T06:50:29.225Z,8.82
2023-11-24T06:55:31.812Z,8.77
2023-11-24T07:00:33.957Z,8.72
2023-11-24T07:05:36.796Z,8.63
2023-11-24T07:10:38.621Z,8.58
2023-11-24T07:15:40.218Z,8.69
2023-11-24T07:20:41.708Z,8.79
2023-11-24T07:25:44.258Z,8.87
2023-11-24T07:30:47.237Z,8.97
2023-11-24T07:35:48.764Z,9.02
2023-11-24T07:40:50.140Z,9.08
2023-11-24T07:45:53.252Z,9.16
2023-11-24T07:50:54.837Z,9.18
2023-11-24T07:55:56.337Z,9.15
2023-11-24T08:00:57.823Z,9.19
2023-11-24T08:06:07.437Z,9.02
2023-11-24T08:11:10.021Z,8.94
2023-11-24T08:16:12.814Z,8.77
2023-11-24T08:21:14.581Z,8.76
2023-11-24T08:26:18.539Z,8.87
2023-11-24T08:31:21.505Z,8.78
2023-11-24T08:36:26.493Z,8.69
2023-11-24T08:41:35.434Z,8.73
2023-11-24T08:46:43.541Z,8.78
2023-11-24T08:51:45.132Z,8.88
2023-11-24T08:56:46.502Z,8.89
2023-11-24T09:01:51.133Z,8.96
2023-11-24T09:06:52.662Z,9.04
2023-11-24T09:11:54.078Z,9.11
2023-11-24T09:16:57.601Z,9.22
2023-11-24T09:22:04.623Z,8.95
2023-11-24T09:27:06.181Z,8.68
2023-11-24T09:32:08.014Z,8.44
2023-11-24T09:37:10.669Z,8.30
2023-11-24T09:42:18.313Z,8.12
2023-11-24T09:47:21.491Z,8.23
2023-11-24T09:52:25.156Z,8.38
2023-11-24T09:57:26.750Z,8.53
2023-11-24T10:02:29.002Z,8.19
2023-11-24T10:07:30.627Z,7.70
2023-11-24T10:12:32.164Z,7.59
2023-11-24T10:17:35.243Z,7.29
2023-11-24T10:22:36.925Z,7.21
2023-11-24T10:27:41.382Z,7.15
2023-11-24T10:32:44.764Z,7.17
2023-11-24T10:37:46.506Z,7.23
2023-11-24T10:42:49.792Z,7.28
2023-11-24T10:48:16.064Z,7.23
2023-11-24T10:53:35.699Z,7.48
2023-11-24T10:58:37.529Z,7.75
2023-11-24T11:03:39.973Z,7.82
2023-11-24T11:08:57.280Z,8.06
2023-11-24T11:13:59.979Z,8.22
2023-11-24T11:19:33.955Z,8.33
2023-11-24T11:24:35.516Z,8.27
2023-11-24T11:29:37.340Z,8.32
2023-11-24T11:34:38.754Z,8.62
2023-11-24T11:39:55.458Z,8.57
2023-11-24T11:44:59.935Z,8.62
2023-11-24T11:50:06.323Z,8.73
2023-11-24T11:55:08.069Z,8.81
2023-11-24T12:00:10.773Z,8.74
2023-11-24T12:05:15.902Z,8.68
2023-11-24T12:10:17.299Z,8.73
2023-11-24T12:15:19.066Z,8.76
2023-11-24T12:20:20.965Z,8.87
2023-11-24T12:25:22.868Z,8.60
2023-11-24T12:30:24.428Z,8.38
2023-11-24T12:35:28.664Z,8.41
2023-11-24T12:40:33.714Z,8.27
2023-11-24T12:45:36.709Z,8.25
2023-11-24T12:50:42.031Z,8.17
2023-11-24T12:55:43.483Z,8.17
2023-11-24T13:00:45.230Z,8.28
2023-11-24T13:05:47.236Z,8.47
2023-11-24T13:10:49.752Z,8.51
2023-11-24T13:15:52.260Z,8.44
2023-11-24T13:20:53.720Z,8.52
2023-11-24T13:25:55.102Z,8.46
2023-11-24T13:30:56.924Z,8.55
2023-11-24T13:35:58.666Z,8.66
2023-11-24T13:41:00.057Z,8.79
2023-11-24T13:46:03.228Z,8.89
2023-11-24T13:51:07.695Z,9.21
2023-11-24T13:56:09.620Z,9.38
2023-11-24T14:01:11.351Z,7.71
2023-11-24T14:06:14.604Z,6.73
2023-11-24T14:11:16.700Z,6.64
2023-11-24T14:16:18.144Z,6.35
2023-11-24T14:21:20.375Z,6.01
2023-11-24T14:26:21.764Z,5.93
2023-11-24T14:31:23.501Z,5.94
2023-11-24T14:36:25.039Z,5.73
2023-11-24T14:41:26.980Z,5.73
2023-11-24T14:46:32.353Z,5.81
2023-11-24T14:51:37.082Z,5.91
2023-11-24T14:56:41.031Z,5.87
2023-11-24T15:01:44.011Z,5.76
2023-11-24T15:06:50.749Z,5.70
2023-11-24T15:11:53.664Z,5.66
2023-11-24T15:16:58.951Z,5.66
2023-11-24T15:22:21.347Z,5.70
2023-11-24T15:27:22.827Z,5.78
2023-11-24T15:32:24.916Z,5.83
2023-11-24T15:37:26.901Z,5.85
2023-11-24T15:42:30.336Z,5.87
2023-11-24T15:47:31.939Z,5.90
2023-11-24T15:52:34.856Z,5.95
2023-11-24T15:57:36.254Z,5.92
2023-11-24T16:02:38.813Z,5.96
2023-11-24T16:07:40.267Z,5.99
2023-11-24T16:12:45.784Z,6.12
2023-11-24T16:17:48.512Z,6.09
2023-11-24T16:22:50.305Z,5.96
2023-11-24T16:27:51.735Z,5.57
2023-11-24T16:32:53.148Z,4.93
2023-11-24T16:37:54.731Z,4.69
2023-11-24T16:42:56.184Z,4.46
2023-11-24T16:47:57.687Z,4.39
2023-11-24T16:52:59.108Z,4.27
2023-11-24T16:58:00.531Z,4.33
2023-11-24T17:03:01.970Z,4.33
2023-11-24T17:08:07.880Z,4.29
2023-11-24T17:13:09.674Z,4.25
2023-11-24T17:18:11.118Z,4.16
2023-11-24T17:23:17.157Z,4.20
2023-11-24T17:28:18.675Z,4.27
2023-11-24T17:33:20.162Z,4.37
2023-11-24T17:38:22.372Z,4.52
2023-11-24T17:43:23.819Z,4.61
2023-11-24T17:48:25.268Z,4.70
2023-11-24T17:53:26.709Z,4.82
2023-11-24T17:58:28.387Z,4.91
2023-11-24T18:03:30.156Z,4.97
2023-11-24T18:08:34.820Z,4.96
2023-11-24T18:13:36.559Z,4.93
2023-11-24T18:18:41.053Z,5.01
2023-11-24T18:23:43.404Z,5.00
2023-11-24T18:28:47.869Z,5.05
2023-11-24T18:33:49.261Z,5.03
2023-11-24T18:38:50.646Z,4.96
2023-11-24T18:43:52.424Z,4.90
2023-11-24T18:48:53.990Z,4.84
2023-11-24T18:53:56.608Z,4.78
2023-11-24T18:58:58.015Z,4.76
2023-11-24T19:03:59.516Z,4.78
2023-11-24T19:09:01.066Z,4.82
2023-11-24T19:14:02.843Z,4.80
2023-11-24T19:19:04.290Z,4.84
2023-11-24T19:24:06.726Z,4.86
2023-11-24T19:29:11.622Z,4.92
2023-11-24T19:34:13.858Z,4.99
2023-11-24T19:39:15.387Z,4.96
2023-11-24T19:44:16.744Z,4.96
2023-11-24T19:49:18.166Z,5.00
2023-11-24T19:54:19.561Z,5.02
2023-11-24T19:59:20.977Z,5.01
2023-11-24T20:04:22.461Z,4.96
2023-11-24T20:09:23.846Z,4.97
2023-11-24T20:14:25.229Z,5.04
2023-11-24T20:19:26.667Z,4.95
2023-11-24T20:24:28.145Z,4.96
2023-11-24T20:29:29.521Z,5.02
2023-11-24T20:34:32.220Z,5.05
2023-11-24T20:39:33.726Z,5.08
2023-11-24T20:44:36.555Z,5.15
2023-11-24T20:49:38.448Z,5.20
2023-11-24T20:54:40.405Z,5.22
2023-11-24T20:59:41.986Z,5.45
2023-11-24T21:04:43.466Z,5.31
2023-11-24T21:09:44.909Z,5.26
2023-11-24T21:14:46.925Z,5.31
2023-11-24T21:19:48.290Z,5.41
2023-11-24T21:24:52.533Z,5.37
2023-11-24T21:29:53.961Z,5.31
2023-11-24T21:34:55.451Z,5.29
2023-11-24T21:40:01.649Z,5.30
2023-11-24T21:45:04.232Z,5.33
2023-11-24T21:50:07.308Z,5.40
2023-11-24T21:55:10.176Z,5.43
2023-11-24T22:00:17.500Z,5.49
2023-11-24T22:05:19.052Z,5.48
2023-11-24T22:10:20.600Z,5.49
2023-11-24T22:15:22.028Z,5.47
2023-11-24T22:20:23.410Z,5.53
2023-11-24T22:25:24.990Z,5.52
2023-11-24T22:30:26.588Z,5.43
2023-11-24T22:35:28.410Z,5.33
2023-11-24T22:40:29.974Z,5.23
2023-11-24T22:45:33.123Z,5.19
2023-11-24T22:50:34.812Z,5.08
2023-11-24T22:55:36.900Z,4.97
2023-11-24T23:00:41.536Z,4.88
2023-11-24T23:05:47.381Z,4.82
2023-11-24T23:10:49.186Z,4.82
2023-11-24T23:15:51.703Z,4.81
2023-11-24T23:20:53.429Z,4.71
2023-11-24T23:25:54.959Z,4.72
2023-11-24T23:30:56.586Z,4.72
2023-11-24T23:36:01.011Z,4.71
2023-11-24T23:41:02.898Z,4.77
2023-11-24T23:46:06.402Z,4.77
2023-11-24T23:51:08.412Z,4.72
2023-11-24T23:56:10.644Z,4.71
